Latest Weather Observations for Lord Howe Island Windy Point

IDN60801

Issued at 5:05 pm EDT Thursday 23 October 2014 (issued every 30 minutes, with the page automatically refreshed every 10 minutes)

About weather observations | Map of weather stations | Latest weather observations for NSW | Other Formats
Station Details ID: 200715 Name: LORD HOWE ISLAND WINDY POINT Lat: -31.54 Lon: 159.07 Height: 4.0 m
Data from the previous 72 hours. | See also: Recent months for locations in New South Wales
Date/Time
EDT
Temp
°C
App
Temp
°C
Dew
Point
Rel
Hum
%
Delta-T
°C
Wind Press
QNH
hPa
Press
MSL
hPa
Rain
since 9 am
mm
Dir
 
Spd
km/h
Gust
km/h
Spd
kts
Gust
kts
23/05:00pm - - - - - E 22 26 12 14 - - -
23/04:30pm - - - - - E 20 28 11 15 - - -
23/04:00pm - - - - - SSW 7 11 4 6 - - -
23/03:30pm - - - - - SW 15 20 8 11 - - -
23/03:00pm - - - - - SSW 13 20 7 11 - - -
23/02:30pm - - - - - SSW 19 24 10 13 - - -
23/02:00pm - - - - - SSW 13 19 7 10 - - -
23/01:30pm - - - - - NNE 13 20 7 11 - - -
23/01:00pm - - - - - SSE 9 15 5 8 - - -
23/12:30pm - - - - - SSW 17 22 9 12 - - -
23/12:00pm - - - - - S 6 13 3 7 - - -
23/11:30am - - - - - E 17 22 9 12 - - -
23/11:00am - - - - - S 7 11 4 6 - - -
23/10:30am - - - - - E 15 20 8 11 - - -
23/10:00am - - - - - E 11 17 6 9 - - -
23/09:30am - - - - - CALM 0 0 0 0 - - -
23/09:00am - - - - - CALM 0 0 0 0 - - -
23/08:30am - - - - - SE 6 7 3 4 - - -
23/08:00am - - - - - SSE 2 6 1 3 - - -
23/07:30am - - - - - ESE 6 11 3 6 - - -
23/07:00am - - - - - CALM 0 0 0 0 - - -
23/06:30am - - - - - CALM 0 0 0 0 - - -
23/06:00am - - - - - E 6 7 3 4 - - -
23/05:30am - - - - - E 7 7 4 4 - - -
23/05:00am - - - - - E 6 7 3 4 - - -
23/04:30am - - - - - E 6 7 3 4 - - -
23/04:00am - - - - - E 6 7 3 4 - - -
23/03:30am - - - - - E 6 7 3 4 - - -
23/03:00am - - - - - E 7 9 4 5 - - -
23/02:30am - - - - - E 9 15 5 8 - - -
23/02:00am - - - - - ESE 9 13 5 7 - - -
23/01:30am - - - - - ESE 9 13 5 7 - - -
23/01:00am - - - - - ESE 13 19 7 10 - - -
23/12:30am - - - - - ESE 13 17 7 9 - - -
23/12:00am - - - - - ESE 13 20 7 11 - - -
 
Date/Time
EDT
Temp
°C
App
Temp
°C
Dew
Point
Rel
Hum
%
Delta-T
°C
Wind Press
QNH
hPa
Press
MSL
hPa
Rain
since 9 am
mm
Dir
 
Spd
km/h
Gust
km/h
Spd
kts
Gust
kts
22/11:30pm - - - - - E 9 20 5 11 - - -
22/11:00pm - - - - - E 6 9 3 5 - - -
22/10:30pm - - - - - ESE 11 15 6 8 - - -
22/10:00pm - - - - - SE 13 19 7 10 - - -
22/09:30pm - - - - - ESE 9 11 5 6 - - -
22/09:00pm - - - - - ESE 13 22 7 12 - - -
22/08:30pm - - - - - SE 13 20 7 11 - - -
22/08:00pm - - - - - ESE 17 26 9 14 - - -
22/07:30pm - - - - - ESE 13 15 7 8 - - -
22/07:00pm - - - - - ESE 15 22 8 12 - - -
22/06:30pm - - - - - ESE 20 30 11 16 - - -
22/06:00pm - - - - - ESE 17 28 9 15 - - -
22/05:30pm - - - - - SSE 19 26 10 14 - - -
22/05:00pm - - - - - SE 17 20 9 11 - - -
22/04:30pm - - - - - SSE 13 22 7 12 - - -
22/04:00pm - - - - - ESE 15 24 8 13 - - -
22/03:30pm - - - - - E 20 30 11 16 - - -
22/03:00pm - - - - - E 19 26 10 14 - - -
22/02:30pm - - - - - ESE 30 39 16 21 - - -
22/02:00pm - - - - - ESE 22 30 12 16 - - -
22/01:30pm - - - - - ESE 22 39 12 21 - - -
22/01:00pm - - - - - SE 9 17 5 9 - - -
22/12:43pm - - - - - E 28 46 15 25 - - -
22/12:30pm - - - - - S 20 37 11 20 - - -
22/12:00pm - - - - - ESE 19 35 10 19 - - -
22/11:30am - - - - - ESE 24 43 13 23 - - -
22/11:00am - - - - - E 24 30 13 16 - - -
22/10:30am - - - - - SSW 20 30 11 16 - - -
22/10:00am - - - - - SSW 9 28 5 15 - - -
22/09:30am - - - - - SSE 15 26 8 14 - - -
22/09:00am - - - - - S 19 30 10 16 - - -
22/08:30am - - - - - SE 15 24 8 13 - - -
22/08:00am - - - - - SSE 17 26 9 14 - - -
22/07:30am - - - - - SSE 13 24 7 13 - - -
22/07:00am - - - - - ESE 28 39 15 21 - - -
22/06:47am - - - - - E 28 39 15 21 - - -
22/06:30am - - - - - S 9 19 5 10 - - -
22/06:00am - - - - - E 22 32 12 17 - - -
22/05:30am - - - - - E 20 30 11 16 - - -
22/05:00am - - - - - ESE 4 13 2 7 - - -
22/04:30am - - - - - E 9 17 5 9 - - -
22/04:00am - - - - - W 6 15 3 8 - - -
22/03:30am - - - - - SSE 11 22 6 12 - - -
22/03:00am - - - - - SE 17 28 9 15 - - -
22/02:30am - - - - - SE 19 32 10 17 - - -
22/02:00am - - - - - SE 20 41 11 22 - - -
22/01:30am - - - - - ESE 26 35 14 19 - - -
22/01:00am - - - - - SSE 15 26 8 14 - - -
22/12:30am - - - - - ESE 26 39 14 21 - - -
22/12:00am - - - - - ESE 24 37 13 20 - - -
 
Date/Time
EDT
Temp
°C
App
Temp
°C
Dew
Point
Rel
Hum
%
Delta-T
°C
Wind Press
QNH
hPa
Press
MSL
hPa
Rain
since 9 am
mm
Dir
 
Spd
km/h
Gust
km/h
Spd
kts
Gust
kts
21/11:30pm - - - - - ESE 24 35 13 19 - - -
21/11:00pm - - - - - ESE 20 35 11 19 - - -
21/10:30pm - - - - - ESE 22 35 12 19 - - -
21/10:00pm - - - - - SE 20 35 11 19 - - -
21/09:30pm - - - - - ESE 26 43 14 23 - - -
21/09:00pm - - - - - ESE 28 39 15 21 - - -
21/08:34pm - - - - - E 35 54 19 29 - - -
21/08:30pm - - - - - ESE 32 48 17 26 - - -
21/08:29pm - - - - - ESE 28 46 15 25 - - -
21/08:00pm - - - - - ESE 28 41 15 22 - - -
21/07:30pm - - - - - ESE 26 37 14 20 - - -
21/07:01pm - - - - - ESE 28 56 15 30 - - -
21/07:00pm - - - - - ESE 28 39 15 21 - - -
21/06:30pm - - - - - ESE 22 39 12 21 - - -
21/06:22pm - - - - - ESE 28 50 15 27 - - -
21/06:00pm - - - - - SE 17 28 9 15 - - -
21/05:37pm - - - - - ESE 28 46 15 25 - - -
21/05:30pm - - - - - ESE 24 44 13 24 - - -
21/05:00pm - - - - - SSE 20 32 11 17 - - -
21/04:49pm - - - - - E 28 46 15 25 - - -
21/04:30pm - - - - - ESE 24 43 13 23 - - -
21/04:08pm - - - - - ESE 28 57 15 31 - - -
21/04:00pm - - - - - ESE 17 46 9 25 - - -
21/03:30pm - - - - - SW 17 32 9 17 - - -
21/03:18pm - - - - - SW 35 61 19 33 - - -
21/03:16pm - - - - - S 17 26 9 14 - - -
21/03:11pm - - - - - SSW 37 61 20 33 - - -
21/03:08pm - - - - - E 33 56 18 30 - - -
21/03:00pm - - - - - SSW 19 32 10 17 - - -
21/02:30pm - - - - - E 28 46 15 25 - - -
21/02:02pm - - - - - E 30 50 16 27 - - -
21/02:00pm - - - - - SE 26 39 14 21 - - -
21/01:30pm - - - - - ESE 32 54 17 29 - - -
21/01:00pm - - - - - E 28 52 15 28 - - -
21/12:38pm - - - - - ESE 35 56 19 30 - - -
21/12:30pm - - - - - E 32 48 17 26 - - -
21/12:00pm - - - - - E 30 50 16 27 - - -
21/11:55am - - - - - SE 33 54 18 29 - - -
21/11:54am - - - - - ESE 43 54 23 29 - - -
21/11:30am - - - - - SSE 28 57 15 31 - - -
21/11:28am - - - - - E 28 57 15 31 - - -
21/11:00am - - - - - E 20 37 11 20 - - -
21/10:54am - - - - - SSW 35 56 19 30 - - -
21/10:53am - - - - - SSW 39 56 21 30 - - -
21/10:30am - - - - - WSW 13 19 7 10 - - -
21/10:01am - - - - - SSW 28 46 15 25 - - -
21/10:00am - - - - - SSW 30 46 16 25 - - -
21/09:57am - - - - - SW 33 44 18 24 - - -
21/09:30am - - - - - SSW 13 22 7 12 - - -
21/09:00am - - - - - E 20 32 11 17 - - -
21/08:30am - - - - - ESE 20 35 11 19 - - -
21/08:00am - - - - - ESE 32 46 17 25 - - -
21/07:53am - - - - - ESE 28 46 15 25 - - -
21/07:30am - - - - - SE 24 37 13 20 - - -
21/07:00am - - - - - SE 28 46 15 25 - - -
21/06:50am - - - - - SE 28 46 15 25 - - -
21/06:30am - - - - - SE 32 46 17 25 - - -
21/06:07am - - - - - SE 30 54 16 29 - - -
21/06:00am - - - - - SE 30 43 16 23 - - -
21/05:35am - - - - - ESE 32 57 17 31 - - -
21/05:30am - - - - - ESE 30 46 16 25 - - -
21/05:00am - - - - - ESE 30 50 16 27 - - -
21/04:30am - - - - - ESE 28 46 15 25 - - -
21/04:00am - - - - - ESE 28 52 15 28 - - -
21/03:58am - - - - - ESE 28 52 15 28 - - -
21/03:30am - - - - - SE 28 39 15 21 - - -
21/03:04am - - - - - ESE 30 48 16 26 - - -
21/03:00am - - - - - ESE 32 48 17 26 - - -
21/02:57am - - - - - SE 30 48 16 26 - - -
21/02:30am - - - - - SE 26 39 14 21 - - -
21/02:00am - - - - - SE 28 41 15 22 - - -
21/01:30am - - - - - ESE 30 46 16 25 - - -
21/01:00am - - - - - ESE 32 50 17 27 - - -
21/12:43am - - - - - ESE 32 50 17 27 - - -
21/12:30am - - - - - ESE 33 50 18 27 - - -
21/12:00am - - - - - ESE 28 50 15 27 - - -
 
Date/Time
EDT
Temp
°C
App
Temp
°C
Dew
Point
Rel
Hum
%
Delta-T
°C
Wind Press
QNH
hPa
Press
MSL
hPa
Rain
since 9 am
mm
Dir
 
Spd
km/h
Gust
km/h
Spd
kts
Gust
kts
20/11:59pm - - - - - ESE 28 50 15 27 - - -
20/11:30pm - - - - - WSW 26 35 14 19 - - -
20/11:00pm - - - - - WSW 19 22 10 12 - - -
20/10:30pm - - - - - W 19 26 10 14 - - -
20/10:00pm - - - - - WSW 19 22 10 12 - - -
20/09:30pm - - - - - WSW 17 20 9 11 - - -
20/09:00pm - - - - - WSW 15 17 8 9 - - -
20/08:30pm - - - - - WSW 11 15 6 8 - - -
20/08:00pm - - - - - W 13 17 7 9 - - -
20/07:30pm - - - - - SW 15 19 8 10 - - -
20/07:00pm - - - - - SW 13 17 7 9 - - -
20/06:30pm - - - - - SW 13 17 7 9 - - -
20/06:00pm - - - - - SW 11 17 6 9 - - -
20/05:30pm - - - - - SW 17 22 9 12 - - -

Other Formats:

Comma delimited format used in spreadsheet applications
http://www.bom.gov.au/fwo/IDN60801/IDN60801.95995.axf

JavaScript Object Notation format (JSON) in row-major order
http://www.bom.gov.au/fwo/IDN60801/IDN60801.95995.json